createdAt,value
2023-07-10T00:01:13.529Z,2.17
2023-07-10T00:03:40.986Z,2.05
2023-07-10T00:06:15.696Z,2.50
2023-07-10T00:08:45.115Z,2.53
2023-07-10T00:11:19.155Z,2.70
2023-07-10T00:13:47.414Z,2.10
2023-07-10T00:16:17.531Z,2.30
2023-07-10T00:18:44.437Z,2.28
2023-07-10T00:21:11.195Z,2.08
2023-07-10T00:23:38.506Z,2.28
2023-07-10T00:26:22.400Z,2.13
2023-07-10T00:28:51.018Z,2.45
2023-07-10T00:31:17.861Z,2.30
2023-07-10T00:33:48.383Z,2.40
2023-07-10T00:36:33.126Z,2.10
2023-07-10T00:39:20.366Z,2.30
2023-07-10T00:41:50.835Z,1.90
2023-07-10T00:44:18.471Z,2.00
2023-07-10T00:46:55.008Z,1.80
2023-07-10T00:49:30.900Z,2.33
2023-07-10T00:52:09.541Z,2.28
2023-07-10T00:54:40.257Z,2.35
2023-07-10T00:57:14.975Z,1.92
2023-07-10T00:59:43.216Z,1.80
2023-07-10T01:02:09.937Z,1.95
2023-07-10T01:04:40.878Z,2.30
2023-07-10T01:07:16.790Z,2.30
2023-07-10T01:09:50.444Z,2.28
2023-07-10T01:12:18.255Z,1.73
2023-07-10T01:14:44.956Z,2.20
2023-07-10T01:17:12.184Z,2.20
2023-07-10T01:19:39.905Z,2.45
2023-07-10T01:22:10.393Z,1.90
2023-07-10T01:24:38.207Z,2.42
2023-07-10T01:27:07.665Z,1.80
2023-07-10T01:29:55.600Z,2.10
2023-07-10T01:32:25.696Z,1.83
2023-07-10T01:34:56.431Z,2.40
2023-07-10T01:37:23.069Z,2.05
2023-07-10T01:39:52.161Z,2.40
2023-07-10T01:42:19.498Z,2.25
2023-07-10T01:44:48.071Z,2.33
2023-07-10T01:47:16.067Z,2.17
2023-07-10T01:49:50.727Z,2.00
2023-07-10T01:52:19.872Z,2.30
2023-07-10T01:54:47.111Z,1.98
2023-07-10T01:57:15.848Z,2.20
2023-07-10T01:59:42.783Z,2.42
2023-07-10T02:02:10.251Z,2.22
2023-07-10T02:04:37.536Z,2.47
2023-07-10T02:07:04.533Z,2.35
2023-07-10T02:09:32.872Z,2.17
2023-07-10T02:12:00.032Z,1.83
2023-07-10T02:14:26.873Z,2.25
2023-07-10T02:16:53.981Z,2.28
2023-07-10T02:19:21.024Z,2.10
2023-07-10T02:21:48.510Z,2.28
2023-07-10T02:24:15.547Z,2.05
2023-07-10T02:26:42.859Z,2.30
2023-07-10T02:29:09.940Z,1.90
2023-07-10T02:31:37.433Z,2.10
2023-07-10T02:34:04.398Z,2.30
2023-07-10T02:36:31.190Z,2.17
2023-07-10T02:38:58.097Z,2.22
2023-07-10T02:41:24.949Z,4.43
2023-07-10T02:43:51.585Z,2.50
2023-07-10T02:46:18.720Z,2.22
2023-07-10T02:48:45.505Z,2.33
2023-07-10T02:51:13.694Z,2.25
2023-07-10T02:53:40.932Z,2.00
2023-07-10T02:56:07.824Z,2.42
2023-07-10T02:58:34.826Z,2.38
2023-07-10T03:01:03.516Z,2.17
2023-07-10T03:03:30.769Z,2.15
2023-07-10T03:06:00.155Z,2.67
2023-07-10T03:08:27.784Z,2.10
2023-07-10T03:11:05.753Z,2.28
2023-07-10T03:13:32.959Z,2.08
2023-07-10T03:16:09.116Z,2.08
2023-07-10T03:18:37.552Z,2.88
2023-07-10T03:21:07.130Z,2.53
2023-07-10T03:23:34.072Z,2.65
2023-07-10T03:26:00.787Z,2.58
2023-07-10T03:28:29.087Z,2.70
2023-07-10T03:30:55.927Z,2.35
2023-07-10T03:33:22.752Z,2.00
2023-07-10T03:35:59.500Z,2.63
2023-07-10T03:38:26.292Z,2.70
2023-07-10T03:40:54.582Z,2.70
2023-07-10T03:43:21.563Z,2.97
2023-07-10T03:45:48.217Z,2.95
2023-07-10T03:48:15.103Z,2.42
2023-07-10T03:50:42.594Z,2.40
2023-07-10T03:53:09.273Z,2.33
2023-07-10T03:55:36.094Z,2.50
2023-07-10T03:58:02.783Z,2.53
2023-07-10T04:00:29.555Z,3.42
2023-07-10T04:02:56.460Z,2.42
2023-07-10T04:05:23.567Z,2.70
2023-07-10T04:07:50.184Z,3.03
2023-07-10T04:10:16.917Z,2.75
2023-07-10T04:12:43.996Z,2.45
2023-07-10T04:15:10.876Z,2.97
2023-07-10T04:17:37.571Z,2.20
2023-07-10T04:20:05.584Z,2.78
2023-07-10T04:22:32.497Z,2.60
2023-07-10T04:25:06.737Z,2.67
2023-07-10T04:27:33.922Z,2.50
2023-07-10T04:30:00.848Z,2.58
2023-07-10T04:32:27.527Z,2.88
2023-07-10T04:34:54.318Z,2.28
2023-07-10T04:37:20.996Z,2.30
2023-07-10T04:39:47.655Z,2.53
2023-07-10T04:42:14.385Z,2.58
2023-07-10T04:44:41.041Z,2.80
2023-07-10T04:47:07.871Z,2.30
2023-07-10T04:49:34.559Z,2.15
2023-07-10T04:52:01.339Z,2.20
2023-07-10T04:54:27.964Z,2.17
2023-07-10T04:56:54.674Z,2.38
2023-07-10T04:59:21.267Z,2.20
2023-07-10T05:01:48.040Z,2.10
2023-07-10T05:04:14.702Z,2.25
2023-07-10T05:06:41.378Z,2.47
2023-07-10T05:09:08.004Z,2.38
2023-07-10T05:11:34.904Z,2.67
2023-07-10T05:14:01.643Z,2.25
2023-07-10T05:16:31.045Z,2.67
2023-07-10T05:18:57.839Z,2.45
2023-07-10T05:21:24.458Z,2.50
2023-07-10T05:23:51.085Z,2.33
2023-07-10T05:26:20.666Z,2.55
2023-07-10T05:28:47.654Z,2.15
2023-07-10T05:31:14.634Z,1.90
2023-07-10T05:33:41.624Z,2.22
2023-07-10T05:36:11.580Z,2.25
2023-07-10T05:38:39.439Z,2.45
2023-07-10T05:41:07.424Z,2.30
2023-07-10T05:43:34.799Z,2.30
2023-07-10T05:46:02.082Z,1.98
2023-07-10T05:48:29.662Z,2.13
2023-07-10T05:50:57.251Z,2.20
2023-07-10T05:53:24.003Z,1.85
2023-07-10T05:55:52.926Z,2.45
2023-07-10T05:58:22.230Z,2.22
2023-07-10T06:00:50.698Z,2.47
2023-07-10T06:03:18.096Z,2.35
2023-07-10T06:05:53.958Z,2.40
2023-07-10T06:08:20.702Z,2.10
2023-07-10T06:10:47.401Z,2.22
2023-07-10T06:13:16.181Z,2.53
2023-07-10T06:15:48.975Z,2.42
2023-07-10T06:18:16.661Z,2.35
2023-07-10T06:20:43.596Z,2.35
2023-07-10T06:23:10.650Z,2.15
2023-07-10T06:25:45.061Z,2.30
2023-07-10T06:28:13.002Z,2.30
2023-07-10T06:30:41.477Z,2.33
2023-07-10T06:33:09.122Z,2.35
2023-07-10T06:35:36.899Z,2.75
2023-07-10T06:38:03.804Z,2.40
2023-07-10T06:40:30.438Z,2.08
2023-07-10T06:42:57.105Z,2.42
2023-07-10T06:45:23.736Z,2.33
2023-07-10T06:47:50.593Z,2.28
2023-07-10T06:50:17.517Z,2.55
2023-07-10T06:52:45.721Z,2.47
2023-07-10T06:55:15.402Z,2.35
2023-07-10T06:57:42.066Z,3.13
2023-07-10T07:00:11.416Z,3.75
2023-07-10T07:02:38.915Z,3.55
2023-07-10T07:05:08.089Z,3.15
2023-07-10T07:07:36.591Z,2.45
2023-07-10T07:10:03.800Z,2.05
2023-07-10T07:12:30.546Z,2.65
2023-07-10T07:14:57.165Z,2.80
2023-07-10T07:17:23.916Z,2.03
2023-07-10T07:19:50.701Z,2.05
2023-07-10T07:22:17.302Z,1.90
2023-07-10T07:24:43.989Z,2.00
2023-07-10T07:27:10.684Z,4.18
2023-07-10T07:29:37.345Z,2.35
2023-07-10T07:32:04.485Z,2.00
2023-07-10T07:34:31.099Z,1.52
2023-07-10T07:36:57.749Z,1.95
2023-07-10T07:39:29.252Z,1.90
2023-07-10T07:41:55.883Z,1.80
2023-07-10T07:44:22.776Z,1.70
2023-07-10T07:46:49.515Z,1.88
2023-07-10T07:49:16.219Z,1.90
2023-07-10T07:51:44.339Z,1.88
2023-07-10T07:54:15.510Z,2.00
2023-07-10T07:56:42.153Z,1.70
2023-07-10T07:59:08.806Z,1.70
2023-07-10T08:01:35.614Z,1.63
2023-07-10T08:04:02.593Z,1.55
2023-07-10T08:06:31.610Z,1.30
2023-07-10T08:08:58.354Z,1.35
2023-07-10T08:11:25.260Z,1.15
2023-07-10T08:13:52.040Z,1.60
2023-07-10T08:16:20.308Z,1.27
2023-07-10T08:18:47.336Z,1.17
2023-07-10T08:21:15.955Z,1.10
2023-07-10T08:23:43.075Z,1.30
2023-07-10T08:26:09.783Z,1.45
2023-07-10T08:28:36.576Z,1.30
2023-07-10T08:31:03.638Z,1.23
2023-07-10T08:33:30.565Z,1.13
2023-07-10T08:35:59.615Z,1.30
2023-07-10T08:38:26.457Z,1.40
2023-07-10T08:40:56.886Z,1.42
2023-07-10T08:43:34.533Z,0.85
2023-07-10T08:46:23.334Z,1.17
2023-07-10T08:48:56.425Z,1.00
2023-07-10T08:51:23.110Z,1.27
2023-07-10T08:53:56.581Z,0.98
2023-07-10T08:56:36.814Z,1.10
2023-07-10T08:59:16.580Z,1.30
2023-07-10T09:01:47.577Z,0.90
2023-07-10T09:04:17.931Z,1.50
2023-07-10T09:06:53.040Z,1.02
2023-07-10T09:09:37.408Z,1.30
2023-07-10T09:12:11.417Z,1.42
2023-07-10T09:14:49.320Z,1.30
2023-07-10T09:17:41.578Z,1.13
2023-07-10T09:20:13.652Z,1.95
2023-07-10T09:22:48.524Z,1.30
2023-07-10T09:25:15.640Z,1.15
2023-07-10T09:27:43.853Z,1.33
2023-07-10T09:30:22.071Z,1.40
2023-07-10T09:32:52.000Z,1.15
2023-07-10T09:35:21.012Z,1.58
2023-07-10T09:37:50.464Z,1.08
2023-07-10T09:40:21.880Z,1.10
2023-07-10T09:42:48.597Z,1.00
2023-07-10T09:45:16.600Z,1.38
2023-07-10T09:47:51.302Z,1.70
2023-07-10T09:52:56.574Z,1.40
2023-07-10T09:55:24.526Z,1.10
2023-07-10T09:57:59.837Z,0.90
2023-07-10T10:00:28.353Z,1.17
2023-07-10T10:03:02.515Z,1.15
2023-07-10T10:05:30.576Z,1.33
2023-07-10T10:08:16.935Z,1.30
2023-07-10T10:10:43.703Z,1.38
2023-07-10T10:13:27.646Z,1.33
2023-07-10T10:16:07.765Z,1.15
2023-07-10T10:18:51.854Z,1.13
2023-07-10T10:21:20.597Z,1.15
2023-07-10T10:23:49.794Z,1.30
2023-07-10T10:26:19.469Z,0.90
2023-07-10T10:29:10.785Z,1.10
2023-07-10T10:31:49.095Z,1.13
2023-07-10T10:34:33.296Z,1.20
2023-07-10T10:37:16.294Z,1.15
2023-07-10T10:39:59.811Z,1.00
2023-07-10T10:42:31.017Z,0.82
2023-07-10T10:45:16.468Z,0.90
2023-07-10T10:48:20.427Z,0.93
2023-07-10T10:51:08.460Z,1.00
2023-07-10T10:53:47.164Z,0.80
2023-07-10T10:56:30.851Z,0.77
2023-07-10T10:58:57.540Z,1.00
2023-07-10T11:01:33.181Z,1.20
2023-07-10T11:04:13.706Z,0.90
2023-07-10T11:06:49.860Z,1.02
2023-07-10T11:09:37.526Z,0.80
2023-07-10T11:12:06.195Z,1.00
2023-07-10T11:14:32.822Z,1.27
2023-07-10T11:17:00.116Z,1.40
2023-07-10T11:19:35.139Z,1.35
2023-07-10T11:22:37.482Z,1.40
2023-07-10T11:25:04.474Z,1.70
2023-07-10T11:27:37.195Z,1.58
2023-07-10T11:30:11.453Z,1.90
2023-07-10T11:32:58.858Z,1.33
2023-07-10T11:35:26.517Z,1.00
2023-07-10T11:37:55.722Z,1.38
2023-07-10T11:40:25.462Z,1.73
2023-07-10T11:42:54.218Z,1.60
2023-07-10T11:45:29.333Z,1.77
2023-07-10T11:47:57.445Z,2.00
2023-07-10T11:50:27.029Z,1.95
2023-07-10T11:53:07.473Z,3.00
2023-07-10T11:55:43.349Z,2.10
2023-07-10T11:58:26.727Z,2.00
2023-07-10T12:00:59.502Z,2.22
2023-07-10T12:03:26.309Z,1.95
2023-07-10T12:05:53.094Z,1.73
2023-07-10T12:08:20.978Z,1.65
2023-07-10T12:10:51.847Z,1.30
2023-07-10T12:13:32.234Z,1.15
2023-07-10T12:16:09.528Z,1.95
2023-07-10T12:18:40.020Z,1.42
2023-07-10T12:21:20.308Z,1.20
2023-07-10T12:23:54.783Z,1.52
2023-07-10T12:26:46.734Z,1.50
2023-07-10T12:29:14.796Z,1.42
2023-07-10T12:31:43.049Z,1.90
2023-07-10T12:34:27.234Z,1.50
2023-07-10T12:36:56.660Z,1.30
2023-07-10T12:39:24.200Z,1.80
2023-07-10T12:41:55.609Z,1.15
2023-07-10T12:44:27.793Z,1.33
2023-07-10T12:47:03.709Z,1.10
2023-07-10T12:49:32.698Z,1.20
2023-07-10T12:52:06.134Z,1.05
2023-07-10T12:54:42.102Z,1.63
2023-07-10T12:57:17.938Z,1.23
2023-07-10T12:59:47.313Z,1.25
2023-07-10T13:02:17.525Z,0.98
2023-07-10T13:05:15.174Z,1.40
2023-07-10T13:07:43.179Z,1.08
2023-07-10T13:10:29.329Z,1.90
2023-07-10T13:13:00.844Z,1.63
2023-07-10T13:15:43.200Z,3.10
2023-07-10T13:18:23.611Z,1.75
2023-07-10T13:20:50.431Z,1.50
2023-07-10T13:23:17.694Z,1.60
2023-07-10T13:25:44.798Z,1.50
2023-07-10T13:28:26.071Z,1.33
2023-07-10T13:33:26.696Z,1.92
2023-07-10T13:35:56.439Z,2.00
2023-07-10T13:38:23.948Z,1.80
2023-07-10T13:40:53.080Z,2.17
2023-07-10T13:43:21.762Z,1.92
2023-07-10T13:45:56.140Z,3.80
2023-07-10T13:48:23.273Z,2.47
2023-07-10T13:50:53.683Z,2.83
2023-07-10T13:53:23.787Z,3.67
2023-07-10T13:55:52.071Z,3.88
2023-07-10T13:58:26.453Z,2.60
2023-07-10T14:00:56.300Z,3.13
2023-07-10T14:03:24.423Z,2.75
2023-07-10T14:05:55.781Z,3.30
2023-07-10T14:08:30.647Z,2.78
2023-07-10T14:10:59.855Z,2.50
2023-07-10T14:13:27.133Z,2.38
2023-07-10T14:16:04.675Z,2.15
2023-07-10T14:18:32.086Z,1.80
2023-07-10T14:20:58.849Z,1.40
2023-07-10T14:23:28.412Z,1.80
2023-07-10T14:26:26.848Z,2.00
2023-07-10T14:28:55.082Z,1.50
2023-07-10T14:31:22.198Z,2.05
2023-07-10T14:33:49.271Z,1.88
2023-07-10T14:36:19.197Z,1.90
2023-07-10T14:38:46.580Z,1.80
2023-07-10T14:41:17.512Z,1.50
2023-07-10T14:43:45.319Z,1.60
2023-07-10T14:46:17.238Z,1.80
2023-07-10T14:48:45.584Z,3.45
2023-07-10T14:51:12.813Z,2.20
2023-07-10T14:53:39.675Z,1.70
2023-07-10T14:56:14.304Z,1.80
2023-07-10T14:58:41.548Z,2.15
2023-07-10T15:01:15.348Z,2.22
2023-07-10T15:03:42.560Z,1.83
2023-07-10T15:06:24.225Z,1.70
2023-07-10T15:08:51.604Z,2.28
2023-07-10T15:11:18.981Z,1.70
2023-07-10T15:13:46.006Z,2.70
2023-07-10T15:16:24.714Z,2.05
2023-07-10T15:18:53.100Z,1.60
2023-07-10T15:21:21.998Z,1.70
2023-07-10T15:23:48.680Z,1.50
2023-07-10T15:26:16.272Z,1.70
2023-07-10T15:28:43.054Z,1.70
2023-07-10T15:31:11.873Z,1.20
2023-07-10T15:33:42.138Z,1.40
2023-07-10T15:36:17.069Z,1.50
2023-07-10T15:38:44.041Z,1.40
2023-07-10T15:41:22.414Z,1.20
2023-07-10T15:43:49.152Z,1.60
2023-07-10T15:46:15.939Z,1.60
2023-07-10T15:48:43.125Z,1.38
2023-07-10T15:51:26.854Z,1.45
2023-07-10T15:53:53.722Z,1.73
2023-07-10T15:56:20.561Z,1.40
2023-07-10T15:58:48.513Z,1.33
2023-07-10T16:01:19.364Z,1.50
2023-07-10T16:03:50.231Z,1.17
2023-07-10T16:06:17.254Z,1.27
2023-07-10T16:08:43.945Z,1.48
2023-07-10T16:11:10.523Z,1.52
2023-07-10T16:13:37.879Z,1.10
2023-07-10T16:16:05.348Z,1.33
2023-07-10T16:18:34.794Z,1.40
2023-07-10T16:21:15.547Z,1.48
2023-07-10T16:23:42.702Z,1.40
2023-07-10T16:26:10.677Z,1.70
2023-07-10T16:28:37.704Z,1.35
2023-07-10T16:31:04.798Z,1.60
2023-07-10T16:33:31.851Z,1.40
2023-07-10T16:35:58.572Z,2.30
2023-07-10T16:38:26.140Z,1.45
2023-07-10T16:40:55.974Z,3.80
2023-07-10T16:43:33.758Z,1.50
2023-07-10T16:46:01.581Z,1.55
2023-07-10T16:48:29.599Z,1.48
2023-07-10T16:51:00.323Z,1.70
2023-07-10T16:53:29.631Z,1.80
2023-07-10T16:55:58.569Z,1.30
2023-07-10T16:58:28.558Z,1.50
2023-07-10T17:00:55.599Z,1.60
2023-07-10T17:03:34.152Z,1.77
2023-07-10T17:06:01.287Z,1.65
2023-07-10T17:08:30.137Z,1.98
2023-07-10T17:11:00.748Z,1.33
2023-07-10T17:13:32.728Z,1.52
2023-07-10T17:15:59.458Z,2.00
2023-07-10T17:18:28.328Z,1.25
2023-07-10T17:20:57.875Z,1.55
2023-07-10T17:23:29.461Z,1.70
2023-07-10T17:25:58.688Z,1.10
2023-07-10T17:28:45.327Z,1.20
2023-07-10T17:31:22.839Z,1.10
2023-07-10T17:33:53.517Z,1.00
2023-07-10T17:36:20.490Z,1.02
2023-07-10T17:38:47.736Z,1.20
2023-07-10T17:41:20.220Z,1.30
2023-07-10T17:43:53.273Z,1.08
2023-07-10T17:46:20.059Z,1.20
2023-07-10T17:48:46.721Z,1.20
2023-07-10T17:51:24.554Z,0.90
2023-07-10T17:53:51.962Z,1.08
2023-07-10T17:56:18.775Z,1.00
2023-07-10T17:58:45.450Z,1.42
2023-07-10T18:01:17.641Z,1.20
2023-07-10T18:03:44.757Z,1.00
2023-07-10T18:06:11.441Z,1.52
2023-07-10T18:08:38.557Z,1.33
2023-07-10T18:11:11.248Z,1.13
2023-07-10T18:13:39.893Z,1.75
2023-07-10T18:16:08.193Z,1.30
2023-07-10T18:18:35.368Z,1.52
2023-07-10T18:21:14.278Z,1.45
2023-07-10T18:23:40.913Z,1.40
2023-07-10T18:26:10.319Z,1.33
2023-07-10T18:28:37.257Z,2.00
2023-07-10T18:31:17.454Z,1.17
2023-07-10T18:33:45.329Z,1.60
2023-07-10T18:36:14.683Z,1.23
2023-07-10T18:38:41.584Z,1.25
2023-07-10T18:41:31.482Z,1.40
2023-07-10T18:44:06.250Z,2.03
2023-07-10T18:46:35.382Z,1.52
2023-07-10T18:49:02.316Z,1.77
2023-07-10T18:51:36.259Z,1.63
2023-07-10T18:54:12.757Z,1.83
2023-07-10T18:56:41.911Z,1.50
2023-07-10T18:59:22.050Z,1.73
2023-07-10T19:01:52.728Z,1.40
2023-07-10T19:04:30.141Z,1.30
2023-07-10T19:06:57.191Z,1.30
2023-07-10T19:09:28.799Z,1.55
2023-07-10T19:11:56.640Z,1.52
2023-07-10T19:14:25.974Z,1.50
2023-07-10T19:17:02.514Z,1.10
2023-07-10T19:19:33.424Z,1.65
2023-07-10T19:22:00.047Z,1.90
2023-07-10T19:24:28.458Z,1.52
2023-07-10T19:26:55.257Z,1.40
2023-07-10T19:29:21.913Z,1.65
2023-07-10T19:32:00.842Z,1.67
2023-07-10T19:34:28.919Z,1.70
2023-07-10T19:36:55.621Z,1.50
2023-07-10T19:39:25.650Z,1.48
2023-07-10T19:41:55.549Z,1.33
2023-07-10T19:44:26.994Z,1.60
2023-07-10T19:46:54.382Z,1.65
2023-07-10T19:49:27.349Z,1.40
2023-07-10T19:51:54.183Z,1.48
2023-07-10T19:54:25.574Z,1.70
2023-07-10T19:56:52.757Z,1.40
2023-07-10T19:59:21.553Z,1.30
2023-07-10T20:01:49.097Z,1.50
2023-07-10T20:04:16.094Z,1.60
2023-07-10T20:06:45.246Z,1.90
2023-07-10T20:09:22.286Z,1.85
2023-07-10T20:11:49.566Z,1.30
2023-07-10T20:14:17.944Z,1.17
2023-07-10T20:16:49.968Z,1.80
2023-07-10T20:19:19.161Z,1.67
2023-07-10T20:21:46.532Z,1.70
2023-07-10T20:24:14.982Z,1.90
2023-07-10T20:26:42.501Z,1.48
2023-07-10T20:29:18.548Z,1.80
2023-07-10T20:31:46.333Z,1.40
2023-07-10T20:34:15.001Z,1.50
2023-07-10T20:36:44.439Z,1.70
2023-07-10T20:39:13.462Z,1.90
2023-07-10T20:41:40.359Z,1.95
2023-07-10T20:44:12.790Z,1.90
2023-07-10T20:46:42.968Z,2.00
2023-07-10T20:49:18.405Z,1.80
2023-07-10T20:51:46.492Z,2.10
2023-07-10T20:54:21.215Z,2.42
2023-07-10T20:56:53.918Z,2.53
2023-07-10T20:59:28.962Z,3.38
2023-07-10T21:04:23.174Z,5.93
2023-07-10T21:07:06.292Z,6.18
2023-07-10T21:09:32.898Z,5.95
2023-07-10T21:11:59.623Z,5.10
2023-07-10T21:14:26.373Z,6.35
2023-07-10T21:16:53.152Z,5.22
2023-07-10T21:19:23.472Z,4.60
2023-07-10T21:21:51.519Z,3.85
2023-07-10T21:24:21.263Z,4.45
2023-07-10T21:26:58.730Z,3.20
2023-07-10T21:29:25.656Z,3.67
2023-07-10T21:31:52.605Z,3.13
2023-07-10T21:34:19.458Z,2.70
2023-07-10T21:36:46.096Z,2.63
2023-07-10T21:39:12.817Z,3.05
2023-07-10T21:41:44.607Z,2.97
2023-07-10T21:44:22.108Z,2.63
2023-07-10T21:46:50.633Z,2.35
2023-07-10T21:49:18.282Z,2.55
2023-07-10T21:51:45.685Z,1.95
2023-07-10T21:54:13.530Z,2.10
2023-07-10T21:56:44.329Z,2.20
2023-07-10T21:59:21.112Z,2.38
2023-07-10T22:01:49.042Z,2.38
2023-07-10T22:04:16.575Z,2.10
2023-07-10T22:06:44.715Z,2.00
2023-07-10T22:09:12.509Z,1.88
2023-07-10T22:11:41.938Z,2.22
2023-07-10T22:14:16.606Z,1.95
2023-07-10T22:16:44.434Z,1.75
2023-07-10T22:19:12.436Z,2.10
2023-07-10T22:21:39.965Z,2.20
2023-07-10T22:24:15.429Z,2.00
2023-07-10T22:26:42.209Z,1.48
2023-07-10T22:29:08.835Z,2.05
2023-07-10T22:31:35.584Z,2.10
2023-07-10T22:34:02.255Z,2.13
2023-07-10T22:36:29.064Z,1.92
2023-07-10T22:38:55.700Z,1.95
2023-07-10T22:41:27.875Z,2.25
2023-07-10T22:43:58.426Z,2.10
2023-07-10T22:46:34.062Z,1.73
2023-07-10T22:49:02.990Z,2.00
2023-07-10T22:51:31.504Z,2.03
2023-07-10T22:53:59.482Z,2.05
2023-07-10T22:56:31.396Z,2.10
2023-07-10T22:58:58.823Z,2.22
2023-07-10T23:01:25.998Z,1.90
2023-07-10T23:03:53.699Z,2.28
2023-07-10T23:06:24.057Z,2.17
2023-07-10T23:08:51.747Z,2.08
2023-07-10T23:11:18.879Z,2.15
2023-07-10T23:13:45.605Z,1.80
2023-07-10T23:16:14.063Z,2.28
2023-07-10T23:18:52.187Z,2.22
2023-07-10T23:21:20.247Z,1.98
2023-07-10T23:23:47.196Z,2.13
2023-07-10T23:26:16.380Z,2.47
2023-07-10T23:28:43.010Z,1.95
2023-07-10T23:31:40.283Z,2.25
2023-07-10T23:34:09.923Z,1.75
2023-07-10T23:36:36.551Z,1.92
2023-07-10T23:39:04.324Z,2.15
2023-07-10T23:41:31.630Z,2.22
2023-07-10T23:43:58.630Z,2.22
2023-07-10T23:46:25.539Z,2.08
2023-07-10T23:48:52.295Z,2.30
2023-07-10T23:51:18.978Z,2.13
2023-07-10T23:53:45.651Z,2.38
2023-07-10T23:56:12.511Z,1.63
2023-07-10T23:58:39.274Z,1.60
